Time;durP1;ratioP1;P1;durP2;ratioP2;P2;SDS_P1;SDS_P2;PMS_P1;PMS_P2;Temp;Humidity;BMP_temperature;BMP_pressure;BME280_temperature;BME280_humidity;BME280_pressure;Samples;Min_cycle;Max_cycle;Signal;HPM_P1;HPM_P2
2020/12/15 00:02:21;;;;;;;5.65;2.90;;;;;;;8.67;67.81;100407.91;5039228;28;20048;-71
2020/12/15 00:04:47;;;;;;;6.50;2.72;;;;;;;8.66;68.61;100406.19;5043237;28;20485;-72
2020/12/15 00:07:13;;;;;;;6.57;2.42;;;;;;;8.49;68.25;100409.88;5050061;28;20480;-72
2020/12/15 00:09:39;;;;;;;5.60;2.63;;;;;;;8.53;69.11;100408.13;5043087;28;20046;-71
2020/12/15 00:12:05;;;;;;;5.05;2.28;;;;;;;8.50;68.73;100415.94;5045426;28;20048;-73
2020/12/15 00:14:31;;;;;;;6.28;2.38;;;;;;;8.62;68.94;100404.50;5046879;28;20071;-72
2020/12/15 00:16:58;;;;;;;4.35;2.05;;;;;;;8.59;68.68;100407.16;5051441;28;20486;-72
2020/12/15 00:19:24;;;;;;;8.70;2.58;;;;;;;8.63;68.55;100404.50;5041951;28;20076;-72
2020/12/15 00:21:51;;;;;;;5.07;2.60;;;;;;;8.60;68.98;100406.28;5050624;28;20534;-73
2020/12/15 00:24:17;;;;;;;7.68;2.33;;;;;;;8.48;69.48;100402.16;5048771;28;20139;-73
2020/12/15 00:26:44;;;;;;;4.60;2.20;;;;;;;8.46;70.74;100411.66;5045597;28;20060;-73
2020/12/15 00:29:12;;;;;;;5.40;2.25;;;;;;;8.43;71.27;100411.72;5048048;28;20565;-74
2020/12/15 00:31:38;;;;;;;7.55;2.72;;;;;;;8.37;71.72;100407.47;5051778;28;20136;-72
2020/12/15 00:34:04;;;;;;;12.43;2.60;;;;;;;8.36;72.75;100410.94;5048340;28;20140;-73
2020/12/15 00:36:30;;;;;;;7.63;2.55;;;;;;;8.30;72.97;100406.72;5051045;28;20049;-72
2020/12/15 00:38:56;;;;;;;5.88;2.20;;;;;;;8.34;73.52;100410.09;5048921;28;20064;-72
2020/12/15 00:41:22;;;;;;;5.70;2.28;;;;;;;8.22;73.82;100401.63;5042345;28;20406;-74
2020/12/15 00:43:50;;;;;;;4.88;2.40;;;;;;;8.22;74.53;100413.75;5048319;28;20059;-72
2020/12/15 00:46:16;;;;;;;5.97;2.33;;;;;;;8.12;74.64;100410.41;5049796;28;20052;-73
2020/12/15 00:48:43;;;;;;;5.65;2.13;;;;;;;8.10;74.75;100407.00;5054001;28;20052;-71
2020/12/15 00:51:14;;;;;;;8.55;2.65;;;;;;;8.05;74.86;100404.47;5049712;28;20057;-72
2020/12/15 00:53:40;;;;;;;5.68;2.55;;;;;;;8.06;75.22;100401.00;5050743;28;20081;-73
2020/12/15 00:56:06;;;;;;;4.95;2.25;;;;;;;8.11;75.08;100400.09;5046170;28;20061;-73
2020/12/15 00:58:35;;;;;;;5.85;2.72;;;;;;;8.06;74.76;100401.00;5048990;28;20548;-72
2020/12/15 01:01:02;;;;;;;7.35;2.60;;;;;;;8.05;74.78;100412.25;5048075;28;20082;-72
2020/12/15 01:03:28;;;;;;;6.95;2.63;;;;;;;8.02;75.67;100414.03;5046506;28;20142;-72
2020/12/15 01:05:54;;;;;;;5.38;2.47;;;;;;;7.93;76.75;100412.44;5045839;28;20041;-73
2020/12/15 01:08:20;;;;;;;5.85;2.55;;;;;;;7.98;76.64;100415.81;5047977;28;20048;-73
2020/12/15 01:10:46;;;;;;;7.40;2.88;;;;;;;7.96;77.16;100409.78;5047704;28;20045;-73
2020/12/15 01:13:12;;;;;;;5.80;2.60;;;;;;;7.91;77.19;100401.22;5048208;28;20103;-72
2020/12/15 01:15:38;;;;;;;5.40;2.50;;;;;;;7.92;76.99;100400.34;5045463;28;20044;-71
2020/12/15 01:18:04;;;;;;;7.03;2.92;;;;;;;7.83;78.10;100403.06;5046605;28;20053;-73
2020/12/15 01:20:30;;;;;;;6.65;2.90;;;;;;;7.88;77.73;100402.13;5043923;28;20083;-72
2020/12/15 01:22:56;;;;;;;5.88;2.88;;;;;;;7.76;78.24;100400.53;5048074;28;20049;-71
2020/12/15 01:25:22;;;;;;;5.88;2.72;;;;;;;7.85;77.13;100391.81;5036304;28;20523;-72
2020/12/15 01:27:48;;;;;;;6.25;3.22;;;;;;;7.73;78.20;100390.25;5038253;28;20449;-72
2020/12/15 01:30:14;;;;;;;6.30;2.63;;;;;;;7.69;78.83;100400.63;5048281;28;20514;-72
2020/12/15 01:32:40;;;;;;;6.57;2.78;;;;;;;7.70;78.73;100402.34;5048401;28;20045;-73
2020/12/15 01:35:07;;;;;;;4.85;2.63;;;;;;;7.73;78.63;100407.50;5047753;28;20056;-73
2020/12/15 01:37:33;;;;;;;7.63;2.90;;;;;;;7.67;79.44;100405.84;5047619;28;20053;-71
2020/12/15 01:39:59;;;;;;;7.20;2.60;;;;;;;7.67;79.33;100400.66;5048329;28;20053;-73
2020/12/15 01:42:25;;;;;;;7.95;3.08;;;;;;;7.69;79.62;100405.81;5051579;28;20048;-71
2020/12/15 01:44:51;;;;;;;6.90;2.60;;;;;;;7.76;79.63;100408.31;5049581;28;20041;-72
2020/12/15 01:47:17;;;;;;;7.07;3.00;;;;;;;7.70;79.62;100408.41;5050310;28;20057;-73
2020/12/15 01:49:43;;;;;;;5.80;2.50;;;;;;;7.75;79.65;100416.13;5046027;28;20064;-72
2020/12/15 01:52:12;;;;;;;6.00;3.00;;;;;;;7.78;79.84;100411.75;5045094;28;20090;-71
2020/12/15 01:54:38;;;;;;;7.38;2.97;;;;;;;7.57;80.45;100419.78;5040319;28;20037;-73
2020/12/15 01:57:04;;;;;;;11.88;3.67;;;;;;;7.66;80.50;100421.41;5050157;28;20529;-73
2020/12/15 01:59:31;;;;;;;6.57;2.75;;;;;;;7.70;80.69;100423.06;5046372;28;20478;-71
2020/12/15 02:01:57;;;;;;;7.72;3.28;;;;;;;7.67;80.42;100423.13;5049328;28;20083;-71
2020/12/15 02:04:23;;;;;;;6.13;2.83;;;;;;;7.52;81.38;100418.97;5044823;28;20067;-72
2020/12/15 02:06:50;;;;;;;7.43;2.78;;;;;;;7.53;81.53;100420.69;5041086;28;20087;-72
2020/12/15 02:09:18;;;;;;;9.65;3.10;;;;;;;7.53;81.80;100418.97;5045579;28;20045;-72
2020/12/15 02:11:45;;;;;;;6.63;2.70;;;;;;;7.62;81.27;100415.41;5047583;28;20045;-72
2020/12/15 02:14:11;;;;;;;7.07;3.35;;;;;;;7.51;81.33;100409.50;5047568;28;20079;-72
2020/12/15 02:16:40;;;;;;;11.35;3.92;;;;;;;7.45;82.42;100413.03;5049220;28;20059;-72
2020/12/15 02:19:07;;;;;;;6.95;2.67;;;;;;;7.53;81.61;100410.34;5044986;28;20546;-71
2020/12/15 02:21:50;;;;;;;5.72;2.47;;;;;;;7.55;81.59;100406.00;5047237;28;20060;-72
2020/12/15 02:24:16;;;;;;;14.05;4.55;;;;;;;7.53;82.23;100411.19;5046280;28;20049;-73
2020/12/15 02:26:42;;;;;;;7.00;3.72;;;;;;;7.43;82.67;100410.47;5047118;28;20123;-74
2020/12/15 02:29:08;;;;;;;5.97;3.28;;;;;;;7.44;82.35;100412.16;5046209;28;20053;-73
2020/12/15 02:31:34;;;;;;;8.25;3.67;;;;;;;7.38;82.88;100411.38;5052519;28;20049;-72
2020/12/15 02:34:00;;;;;;;7.07;3.15;;;;;;;7.35;82.80;100416.59;5040681;28;20064;-72
2020/12/15 02:36:28;;;;;;;7.32;3.42;;;;;;;7.45;83.00;100419.03;5052309;28;20461;-71
2020/12/15 02:38:54;;;;;;;6.63;2.95;;;;;;;7.40;82.51;100413.06;5053405;28;20072;-74
2020/12/15 02:41:20;;;;;;;6.55;2.97;;;;;;;7.39;82.72;100418.25;5052641;28;20049;-71
2020/12/15 02:43:46;;;;;;;6.15;3.05;;;;;;;7.34;83.02;100414.88;5050063;28;20476;-73
2020/12/15 02:46:12;;;;;;;7.20;2.95;;;;;;;7.48;82.67;100413.00;5050776;28;20037;-72
2020/12/15 02:48:39;;;;;;;6.57;3.05;;;;;;;7.39;83.17;100413.94;5052449;28;20394;-73
2020/12/15 02:51:05;;;;;;;7.80;3.28;;;;;;;7.38;82.84;100417.41;5053751;28;20055;-73
2020/12/15 02:53:31;;;;;;;6.88;3.33;;;;;;;7.34;83.01;100417.44;5055246;28;20048;-72
2020/12/15 02:55:58;;;;;;;7.50;3.13;;;;;;;7.34;83.32;100420.03;5057258;28;20558;-73
2020/12/15 02:58:24;;;;;;;9.55;3.30;;;;;;;7.38;83.13;100427.75;5057051;28;20055;-73
2020/12/15 03:00:50;;;;;;;8.25;3.75;;;;;;;7.35;83.50;100425.19;5050712;28;20056;-71
2020/12/15 03:03:16;;;;;;;7.50;3.30;;;;;;;7.33;83.57;100426.97;5046883;28;20447;-73
2020/12/15 03:05:41;;;;;;;6.25;3.10;;;;;;;7.40;83.54;100423.44;5046361;28;20045;-73
2020/12/15 03:08:07;;;;;;;7.95;3.20;;;;;;;7.38;83.47;100421.72;5054915;28;20048;-73
2020/12/15 03:10:33;;;;;;;7.00;3.53;;;;;;;7.38;84.01;100417.41;5045942;28;20041;-74
2020/12/15 03:13:00;;;;;;;9.57;3.95;;;;;;;7.40;83.87;100418.25;5052842;28;20053;-73
2020/12/15 03:15:26;;;;;;;7.25;3.67;;;;;;;7.36;84.06;100426.91;5045071;28;20045;-74
2020/12/15 03:17:52;;;;;;;6.32;3.55;;;;;;;7.35;83.87;100414.84;5050297;28;20068;-73
2020/12/15 03:20:18;;;;;;;7.50;3.92;;;;;;;7.40;83.81;100410.50;5050723;28;20095;-73
2020/12/15 03:22:44;;;;;;;7.53;3.70;;;;;;;7.37;84.11;100427.78;5047272;28;20045;-73
2020/12/15 03:25:10;;;;;;;6.70;3.58;;;;;;;7.41;83.66;100419.97;5050029;28;20045;-73
2020/12/15 03:27:36;;;;;;;7.60;4.03;;;;;;;7.32;83.95;100415.75;5053338;28;20095;-71
2020/12/15 03:30:03;;;;;;;8.38;3.97;;;;;;;7.33;84.27;100416.63;5051611;28;20096;-73
2020/12/15 03:32:29;;;;;;;7.05;3.80;;;;;;;7.31;84.43;100421.78;5053123;28;20056;-74
2020/12/15 03:34:55;;;;;;;8.23;3.60;;;;;;;7.34;84.11;100420.03;5040536;28;20049;-73
2020/12/15 03:37:21;;;;;;;6.65;3.75;;;;;;;7.39;83.89;100416.53;5047672;28;20041;-74
2020/12/15 03:39:47;;;;;;;8.82;4.40;;;;;;;7.36;84.21;100413.97;5050889;28;20218;-71
2020/12/15 03:42:12;;;;;;;10.07;4.50;;;;;;;7.33;84.45;100416.63;5054054;28;20490;-72
2020/12/15 03:44:41;;;;;;;6.57;3.65;;;;;;;7.28;84.11;100419.25;5051738;28;20045;-73
2020/12/15 03:47:07;;;;;;;7.40;3.60;;;;;;;7.34;84.01;100420.88;5051809;28;20049;-73
2020/12/15 03:49:33;;;;;;;7.05;3.88;;;;;;;7.36;84.19;100416.56;5044353;28;20047;-72
2020/12/15 03:51:59;;;;;;;7.72;4.00;;;;;;;7.27;84.18;100412.34;5063757;28;20056;-71
2020/12/15 03:54:25;;;;;;;7.63;4.05;;;;;;;7.27;84.03;100419.25;5050763;28;20045;-72
2020/12/15 03:56:51;;;;;;;7.65;4.00;;;;;;;7.24;84.38;100419.28;5052417;28;20045;-71
2020/12/15 03:59:18;;;;;;;8.75;4.38;;;;;;;7.17;84.61;100421.09;5048554;28;20063;-70
2020/12/15 04:01:43;;;;;;;7.70;4.47;;;;;;;7.16;84.61;100422.81;5051343;28;20049;-71
2020/12/15 04:04:10;;;;;;;8.70;4.35;;;;;;;7.14;84.66;100424.53;5041704;28;20098;-73
2020/12/15 04:06:36;;;;;;;9.77;4.30;;;;;;;7.23;84.54;100425.34;5050672;28;20060;-70
2020/12/15 04:09:02;;;;;;;10.15;4.80;;;;;;;7.23;84.34;100427.94;5050984;28;20053;-71
2020/12/15 04:11:28;;;;;;;8.15;4.15;;;;;;;7.18;84.42;100427.09;5050825;28;20088;-70
2020/12/15 04:13:54;;;;;;;12.05;4.72;;;;;;;7.23;83.98;100428.78;5052026;28;20050;-71
2020/12/15 04:16:20;;;;;;;7.50;4.50;;;;;;;7.16;84.61;100433.16;5048724;28;20041;-72
2020/12/15 04:18:46;;;;;;;8.32;4.65;;;;;;;7.22;84.55;100441.72;5051745;28;20056;-71
2020/12/15 04:21:13;;;;;;;11.05;4.93;;;;;;;7.26;84.19;100440.81;5050667;28;20048;-71
2020/12/15 04:23:39;;;;;;;7.97;4.35;;;;;;;7.24;84.90;100435.66;5051727;28;20052;-71
2020/12/15 04:26:05;;;;;;;8.00;4.57;;;;;;;7.21;84.58;100438.28;5036727;28;20047;-72
2020/12/15 04:28:31;;;;;;;9.77;4.70;;;;;;;7.27;84.60;100439.94;5052024;28;20045;-71
2020/12/15 04:30:57;;;;;;;9.88;4.28;;;;;;;7.24;84.58;100437.38;5050348;28;20057;-71
2020/12/15 04:33:23;;;;;;;8.35;4.35;;;;;;;7.30;84.48;100445.09;5051136;28;20454;-71
2020/12/15 04:35:49;;;;;;;10.18;4.72;;;;;;;7.22;84.83;100445.16;5048802;28;20040;-72
2020/12/15 04:38:15;;;;;;;8.50;4.63;;;;;;;7.34;84.71;100451.94;5051504;28;20518;-72
2020/12/15 04:40:41;;;;;;;9.35;4.22;;;;;;;7.42;84.28;100442.38;5042216;28;20084;-72
2020/12/15 04:43:09;;;;;;;9.27;4.82;;;;;;;7.34;84.60;100441.59;5044523;28;20565;-71
2020/12/15 04:45:36;;;;;;;9.98;5.22;;;;;;;7.27;84.86;100445.13;5035164;28;20056;-71
2020/12/15 04:48:06;;;;;;;10.00;4.35;;;;;;;7.35;83.80;100450.22;5038085;28;20072;-70
2020/12/15 04:50:34;;;;;;;7.97;4.90;;;;;;;7.35;84.63;100448.47;5037192;28;20049;-71
2020/12/15 04:53:08;;;;;;;10.57;5.28;;;;;;;7.29;84.74;100449.41;5039715;28;20053;-71
2020/12/15 04:55:35;;;;;;;8.88;4.72;;;;;;;7.41;84.35;100456.19;5035029;28;20049;-70
2020/12/15 04:58:02;;;;;;;9.63;5.38;;;;;;;7.32;84.79;100448.53;5035837;28;20124;-72
2020/12/15 05:00:29;;;;;;;11.70;4.78;;;;;;;7.42;84.28;100444.97;5040288;28;20056;-68
2020/12/15 05:02:57;;;;;;;9.50;5.22;;;;;;;7.34;84.45;100446.75;5037450;28;20073;-71
2020/12/15 05:05:24;;;;;;;9.30;4.82;;;;;;;7.41;83.97;100453.59;5040537;28;20143;-70
2020/12/15 05:07:50;;;;;;;8.98;4.50;;;;;;;7.47;83.78;100445.75;5040444;28;20045;-70
2020/12/15 05:10:18;;;;;;;10.27;5.50;;;;;;;7.41;84.13;100451.00;5039420;28;20399;-71
2020/12/15 05:12:46;;;;;;;10.63;5.53;;;;;;;7.36;84.42;100449.34;5039981;28;20055;-70
2020/12/15 05:15:14;;;;;;;8.85;4.47;;;;;;;7.36;84.39;100455.38;5042922;28;20067;-71
2020/12/15 05:17:41;;;;;;;9.23;4.90;;;;;;;7.32;84.21;100464.91;5039557;28;20473;-69
2020/12/15 05:20:07;;;;;;;11.65;5.10;;;;;;;7.38;84.12;100457.97;5038212;28;20156;-72
2020/12/15 05:22:39;;;;;;;9.98;5.35;;;;;;;7.42;84.20;100455.31;5040411;28;20049;-72
2020/12/15 05:25:05;;;;;;;13.82;5.07;;;;;;;7.40;83.82;100466.53;5038019;28;20103;-71
2020/12/15 05:27:31;;;;;;;10.30;5.15;;;;;;;7.40;84.68;100453.59;5041099;28;20391;-72
2020/12/15 05:30:09;;;;;;;10.52;5.60;;;;;;;7.38;84.28;100448.44;5042247;28;20964;-72
2020/12/15 05:32:36;;;;;;;7.38;4.63;;;;;;;7.42;84.44;100450.16;5040776;28;20094;-72
2020/12/15 05:35:07;;;;;;;14.95;4.32;;;;;;;7.46;84.39;100454.41;5043757;28;20049;-73
2020/12/15 05:37:33;;;;;;;15.07;5.15;;;;;;;7.40;84.39;100445.84;5043618;28;20049;-71
2020/12/15 05:39:59;;;;;;;10.43;5.15;;;;;;;7.51;83.94;100454.34;5040241;28;20501;-72
2020/12/15 05:42:27;;;;;;;10.70;5.25;;;;;;;7.38;84.69;100453.63;5039306;28;20041;-71
2020/12/15 05:44:56;;;;;;;7.97;4.13;;;;;;;7.42;85.03;100454.44;5039414;28;20055;-71
2020/12/15 05:47:23;;;;;;;11.32;4.95;;;;;;;7.47;84.69;100453.53;5039930;28;20501;-71
2020/12/15 05:49:51;;;;;;;9.50;4.95;;;;;;;7.39;84.73;100455.34;5039262;28;20480;-72
2020/12/15 05:52:23;;;;;;;9.25;5.45;;;;;;;7.43;84.49;100458.75;5040963;28;20055;-72
2020/12/15 05:54:49;;;;;;;12.40;5.40;;;;;;;7.42;84.25;100457.91;5040646;28;20911;-72
2020/12/15 05:57:16;;;;;;;11.00;5.53;;;;;;;7.52;84.89;100452.63;5039954;28;20061;-71
2020/12/15 05:59:42;;;;;;;7.35;4.68;;;;;;;7.45;85.29;100452.69;5040531;28;20052;-72
2020/12/15 06:02:09;;;;;;;9.10;5.40;;;;;;;7.43;84.80;100456.16;5039734;28;20065;-71
2020/12/15 06:04:37;;;;;;;8.18;4.85;;;;;;;7.44;85.05;100458.72;5039355;28;20048;-71
2020/12/15 06:07:05;;;;;;;8.20;5.03;;;;;;;7.46;84.50;100459.56;5041122;28;20041;-71
2020/12/15 06:09:31;;;;;;;9.43;5.13;;;;;;;7.43;85.39;100456.16;5037652;28;20115;-71
2020/12/15 06:11:58;;;;;;;8.82;4.70;;;;;;;7.44;85.57;100457.88;5039620;28;20079;-73
2020/12/15 06:14:25;;;;;;;13.85;5.68;;;;;;;7.40;85.53;100461.38;5038572;28;20045;-72
2020/12/15 06:16:52;;;;;;;11.95;5.20;;;;;;;7.50;85.32;100454.38;5042036;28;20080;-71
2020/12/15 06:19:19;;;;;;;11.95;6.00;;;;;;;7.48;85.41;100457.00;5038785;28;20069;-71
2020/12/15 06:21:51;;;;;;;11.85;6.07;;;;;;;7.45;85.65;100457.00;5040625;28;20049;-71
2020/12/15 06:24:25;;;;;;;9.38;5.30;;;;;;;7.53;85.22;100451.75;5039302;28;20060;-71
2020/12/15 06:30:14;;;;;;;12.02;5.90;;;;;;;7.44;86.06;100452.72;5033573;28;20048;-70
2020/12/15 06:32:57;;;;;;;8.73;5.00;;;;;;;7.46;86.02;100463.91;5038846;28;20206;-71
2020/12/15 06:35:24;;;;;;;11.38;5.93;;;;;;;7.46;86.10;100464.75;5038681;28;20072;-72
2020/12/15 06:38:22;;;;;;;13.65;5.93;;;;;;;7.43;86.23;100457.03;5048134;28;20037;-71
2020/12/15 06:40:50;;;;;;;11.82;6.60;;;;;;;7.45;86.18;100460.44;5035616;28;20053;-73
2020/12/15 06:43:24;;;;;;;9.60;5.88;;;;;;;7.57;86.60;100461.19;5039968;28;20044;-70
2020/12/15 06:45:50;;;;;;;11.23;5.75;;;;;;;7.46;86.37;100461.31;5038090;28;20045;-73
2020/12/15 06:48:22;;;;;;;13.70;6.75;;;;;;;7.49;86.58;100458.66;5039354;28;20054;-72
2020/12/15 06:50:49;;;;;;;10.90;5.63;;;;;;;7.49;86.65;100466.44;5038390;28;20056;-71
2020/12/15 06:53:19;;;;;;;12.52;7.15;;;;;;;7.45;87.05;100459.59;5039306;28;20057;-71
2020/12/15 06:55:46;;;;;;;12.02;6.70;;;;;;;7.49;86.83;100470.78;5036471;28;20114;-71
2020/12/15 06:58:22;;;;;;;13.30;6.32;;;;;;;7.49;87.09;100468.19;5039943;28;20048;-71
2020/12/15 07:00:48;;;;;;;12.15;6.43;;;;;;;7.54;86.86;100462.09;5038820;28;20417;-71
2020/12/15 07:03:16;;;;;;;13.00;6.70;;;;;;;7.46;87.24;100467.34;5039963;28;20569;-71
2020/12/15 07:05:42;;;;;;;14.90;6.63;;;;;;;7.53;87.24;100468.13;5038832;28;20434;-71
2020/12/15 07:08:11;;;;;;;14.48;6.20;;;;;;;7.48;87.17;100475.09;5038810;28;20052;-72
2020/12/15 07:10:41;;;;;;;15.15;8.23;;;;;;;7.50;87.53;100475.06;5037379;28;20130;-69
2020/12/15 07:13:10;;;;;;;13.93;6.03;;;;;;;7.55;87.06;100479.34;5036418;28;20049;-70
2020/12/15 07:15:36;;;;;;;11.57;6.20;;;;;;;7.54;87.32;100474.16;5034902;28;20103;-70
2020/12/15 07:18:04;;;;;;;13.52;6.78;;;;;;;7.51;87.46;100485.41;5052834;28;20462;-71
2020/12/15 07:20:31;;;;;;;13.10;6.45;;;;;;;7.53;87.27;100485.41;5052674;28;20048;-72
2020/12/15 07:22:57;;;;;;;11.00;6.03;;;;;;;7.60;87.50;100490.47;5042163;28;20049;-72
2020/12/15 07:25:23;;;;;;;12.18;6.53;;;;;;;7.57;87.42;100484.47;5048431;28;20053;-72
2020/12/15 07:27:50;;;;;;;14.70;6.68;;;;;;;7.71;87.18;100482.59;5053230;28;20052;-71
2020/12/15 07:30:19;;;;;;;13.65;6.72;;;;;;;7.64;87.22;100486.13;5048787;28;20059;-71
2020/12/15 07:32:46;;;;;;;14.77;7.65;;;;;;;7.63;87.46;100482.69;5053061;28;20049;-71
2020/12/15 07:35:17;;;;;;;11.75;7.50;;;;;;;7.67;86.99;100488.69;5043969;28;22367;-71
2020/12/15 07:37:45;;;;;;;15.15;7.05;;;;;;;7.66;87.42;100483.53;5042014;28;20418;-71
2020/12/15 07:40:12;;;;;;;16.08;6.70;;;;;;;7.63;87.48;100487.03;5041195;28;20045;-70
2020/12/15 07:42:39;;;;;;;14.60;7.32;;;;;;;7.69;87.32;100499.00;5040092;28;20110;-71
2020/12/15 07:45:07;;;;;;;15.32;8.18;;;;;;;7.67;88.06;100496.44;5041788;28;20466;-69
2020/12/15 07:47:42;;;;;;;13.98;7.35;;;;;;;7.67;87.92;100490.44;5043957;28;20049;-69
2020/12/15 07:50:08;;;;;;;;;;;;;;;7.73;87.38;100499.00;5041523;28;20057;-71
2020/12/15 07:52:36;;;;;;;14.30;7.88;;;;;;;7.76;87.44;100501.53;5041785;28;20027;-69
2020/12/15 07:55:07;;;;;;;13.10;7.55;;;;;;;7.71;87.81;100502.44;5042750;28;20053;-72
2020/12/15 07:57:35;;;;;;;12.40;8.13;;;;;;;7.65;88.14;100500.78;5042149;28;20044;-70
2020/12/15 08:00:06;;;;;;;11.27;7.80;;;;;;;7.82;87.85;100512.69;5041924;28;20053;-71
2020/12/15 08:02:32;;;;;;;14.80;8.45;;;;;;;7.73;87.97;100500.69;5040639;28;20506;-70
2020/12/15 08:05:07;;;;;;;14.57;8.50;;;;;;;7.75;88.01;100507.56;5032532;28;20056;-72
2020/12/15 08:07:37;;;;;;;;;;;;;;;7.77;88.32;100497.22;5032970;28;20053;-69
2020/12/15 08:10:03;;;;;;;13.20;8.13;;;;;;;7.78;87.74;100501.53;5044720;28;19929;-70
2020/12/15 08:12:30;;;;;;;13.77;8.30;;;;;;;7.88;87.75;100504.84;5051185;28;20065;-71
2020/12/15 08:14:58;;;;;;;12.32;8.55;;;;;;;7.90;87.51;100500.50;5048967;28;20061;-71
2020/12/15 08:17:25;;;;;;;12.85;8.13;;;;;;;7.84;87.87;100505.75;5047593;28;20063;-71
2020/12/15 08:19:51;;;;;;;13.77;8.82;;;;;;;7.86;88.04;100511.78;5071724;22;20056;-75
2020/12/15 08:22:18;;;;;;;15.13;8.43;;;;;;;7.85;87.71;100510.94;5056603;28;20059;-75
2020/12/15 08:24:50;;;;;;;14.95;9.85;;;;;;;7.86;87.97;100512.66;5063350;28;20049;-73
2020/12/15 08:27:16;;;;;;;14.95;9.13;;;;;;;7.86;87.96;100511.78;5063215;28;20557;-75
2020/12/15 08:29:42;;;;;;;15.18;9.25;;;;;;;7.95;87.67;100514.25;5062925;28;20055;-75
2020/12/15 08:32:08;;;;;;;14.88;8.55;;;;;;;7.93;88.11;100519.47;5062348;28;20069;-73
2020/12/15 08:34:34;;;;;;;14.75;9.63;;;;;;;8.04;87.97;100521.91;5061766;28;20052;-74
2020/12/15 08:37:01;;;;;;;12.77;8.90;;;;;;;8.05;87.90;100523.63;5061906;28;20555;-73
2020/12/15 08:39:30;;;;;;;17.23;9.40;;;;;;;8.08;87.52;100525.34;5063123;28;20082;-73
2020/12/15 08:41:58;;;;;;;17.85;9.77;;;;;;;8.11;87.66;100527.03;5058751;28;20076;-74
2020/12/15 08:44:26;;;;;;;16.73;9.05;;;;;;;8.09;87.86;100525.31;5061067;28;20125;-75
2020/12/15 08:46:54;;;;;;;15.77;9.43;;;;;;;8.17;87.45;100529.53;5063107;28;20135;-74
2020/12/15 08:49:22;;;;;;;14.98;10.23;;;;;;;8.19;87.98;100530.38;5060226;28;20049;-74
2020/12/15 08:51:52;;;;;;;15.70;10.02;;;;;;;8.41;86.05;100525.75;5061343;28;20055;-74
2020/12/15 08:54:20;;;;;;;15.80;9.90;;;;;;;8.30;87.10;100530.22;5062756;28;20139;-78
2020/12/15 08:56:48;;;;;;;12.40;8.85;;;;;;;8.34;87.40;100543.13;5064221;28;20040;-74
2020/12/15 08:59:16;;;;;;;15.30;10.77;;;;;;;8.33;87.34;100544.03;5061506;28;20063;-76
2020/12/15 09:01:44;;;;;;;12.32;8.32;;;;;;;8.35;87.31;100551.78;5062261;28;20052;-74
2020/12/15 09:04:10;;;;;;;14.00;9.48;;;;;;;8.33;87.65;100553.53;5062614;28;20053;-75
2020/12/15 09:06:38;;;;;;;17.50;9.60;;;;;;;8.34;87.01;100566.44;5064293;28;20049;-74
2020/12/15 09:09:05;;;;;;;15.68;9.77;;;;;;;8.37;87.15;100563.81;5060567;28;20048;-76
2020/12/15 09:11:31;;;;;;;16.10;10.20;;;;;;;8.45;86.99;100568.03;5060596;28;20048;-72
2020/12/15 09:13:59;;;;;;;15.90;10.70;;;;;;;8.38;86.98;100578.50;5059873;28;20052;-75
2020/12/15 09:16:28;;;;;;;15.95;9.02;;;;;;;8.37;87.13;100571.59;5063537;28;20048;-74
2020/12/15 09:18:54;;;;;;;15.07;10.45;;;;;;;8.38;87.28;100577.66;5059277;28;20715;-74
2020/12/15 09:21:20;;;;;;;16.88;9.80;;;;;;;8.43;86.86;100575.00;5062063;28;20048;-74
2020/12/15 09:23:50;;;;;;;15.75;10.70;;;;;;;8.44;87.54;100580.16;5062538;28;20060;-73
2020/12/15 09:26:17;;;;;;;15.45;10.68;;;;;;;8.50;86.78;100574.91;5057851;28;20053;-73
2020/12/15 09:28:43;;;;;;;16.48;10.38;;;;;;;8.52;86.72;100574.91;5063185;28;20067;-74
2020/12/15 09:31:12;;;;;;;14.73;9.95;;;;;;;8.54;87.11;100576.59;5060055;28;20056;-75
2020/12/15 09:33:38;;;;;;;19.60;11.27;;;;;;;8.58;86.91;100571.38;5059764;28;20071;-74
2020/12/15 09:36:04;;;;;;;13.57;9.93;;;;;;;8.62;86.90;100573.91;5060798;28;20049;-75
2020/12/15 09:38:30;;;;;;;17.73;10.50;;;;;;;8.66;87.40;100583.34;5060718;28;20776;-73
2020/12/15 09:40:56;;;;;;;16.00;10.23;;;;;;;8.61;87.32;100589.47;5063372;28;20144;-73
2020/12/15 09:43:22;;;;;;;15.60;10.52;;;;;;;8.63;86.47;100591.19;5061935;28;20044;-76
2020/12/15 09:45:48;;;;;;;16.02;9.80;;;;;;;8.73;86.14;100602.28;5065046;28;20059;-74
2020/12/15 09:48:15;;;;;;;17.50;10.90;;;;;;;8.61;86.51;100600.72;5062951;28;20045;-72
2020/12/15 09:50:41;;;;;;;17.90;10.75;;;;;;;8.67;87.05;100607.56;5061594;28;20517;-74
2020/12/15 09:53:07;;;;;;;14.88;10.70;;;;;;;8.59;87.24;100611.97;5059711;28;20063;-71
2020/12/15 09:55:33;;;;;;;17.35;11.38;;;;;;;8.64;86.82;100600.66;5059248;28;20048;-74
2020/12/15 09:57:59;;;;;;;19.88;11.38;;;;;;;8.69;87.17;100613.56;5061198;28;20136;-72
2020/12/15 10:00:25;;;;;;;19.23;11.60;;;;;;;8.62;86.92;100612.81;5060159;28;20053;-75
2020/12/15 10:02:51;;;;;;;17.98;11.38;;;;;;;8.61;87.12;100605.03;5060597;28;20055;-74
2020/12/15 10:05:18;;;;;;;15.30;10.82;;;;;;;8.64;87.29;100603.25;5063945;28;20395;-71
2020/12/15 10:07:44;;;;;;;17.58;10.52;;;;;;;8.67;87.14;100611.00;5070026;28;20113;-74
2020/12/15 10:10:10;;;;;;;15.60;10.98;;;;;;;8.76;87.14;100622.09;5063909;28;20044;-74
2020/12/15 10:12:36;;;;;;;15.80;11.20;;;;;;;8.68;86.89;100611.88;5061344;28;20576;-74
2020/12/15 10:15:03;;;;;;;17.45;11.20;;;;;;;8.78;86.55;100608.28;5060425;28;20049;-73
2020/12/15 10:17:29;;;;;;;16.23;11.18;;;;;;;8.74;86.42;100600.53;5061551;28;20125;-72
2020/12/15 10:19:55;;;;;;;20.40;10.52;;;;;;;8.80;86.37;100590.94;5057986;28;20143;-74
2020/12/15 10:22:21;;;;;;;15.40;10.68;;;;;;;8.76;86.69;100597.06;5060771;28;20075;-74
2020/12/15 10:24:47;;;;;;;18.50;11.52;;;;;;;8.83;86.67;100595.25;5062654;28;20056;-74
2020/12/15 10:27:14;;;;;;;17.10;11.65;;;;;;;8.79;86.52;100607.38;5059283;28;20048;-74
2020/12/15 10:29:40;;;;;;;18.20;11.52;;;;;;;8.79;87.40;100603.94;5059735;28;20048;-74
2020/12/15 10:32:06;;;;;;;21.33;12.50;;;;;;;8.85;86.92;100596.03;5059200;28;20049;-73
2020/12/15 10:34:32;;;;;;;19.10;11.43;;;;;;;8.87;86.43;100599.47;5059431;28;20045;-75
2020/12/15 10:36:59;;;;;;;17.13;12.30;;;;;;;8.90;86.80;100594.25;5060448;28;20048;-74
2020/12/15 10:39:26;;;;;;;17.55;11.25;;;;;;;8.91;87.06;100603.75;5058816;28;20060;-74
2020/12/15 10:41:52;;;;;;;18.38;11.55;;;;;;;8.89;86.76;100589.94;5058479;28;20044;-75
2020/12/15 10:44:18;;;;;;;19.48;11.55;;;;;;;8.87;87.12;100604.66;5060205;28;20113;-73
2020/12/15 10:46:45;;;;;;;18.42;12.65;;;;;;;8.88;87.14;100601.19;5063440;28;20045;-74
2020/12/15 10:49:12;;;;;;;15.30;11.52;;;;;;;8.89;87.08;100600.31;5064367;28;20464;-75
2020/12/15 10:51:38;;;;;;;19.95;12.85;;;;;;;9.05;86.82;100600.09;5063598;28;20044;-74
2020/12/15 10:54:04;;;;;;;19.42;12.52;;;;;;;8.92;87.07;100599.41;5063857;28;20052;-74
2020/12/15 10:56:31;;;;;;;19.95;13.35;;;;;;;8.85;86.95;100607.28;5061747;28;20040;-73
2020/12/15 10:58:57;;;;;;;19.02;12.40;;;;;;;8.86;87.07;100609.00;5064000;28;20094;-73
2020/12/15 11:01:24;;;;;;;21.98;13.90;;;;;;;8.91;87.25;100603.75;5059448;28;20052;-75
2020/12/15 11:03:50;;;;;;;19.33;13.10;;;;;;;8.92;87.17;100608.06;5063966;28;20064;-75
2020/12/15 11:06:16;;;;;;;24.60;14.25;;;;;;;8.92;86.77;100609.78;5054103;28;20098;-73
2020/12/15 11:08:42;;;;;;;19.98;13.45;;;;;;;8.91;87.66;100619.31;5067801;28;20251;-74
2020/12/15 11:11:11;;;;;;;22.83;14.68;;;;;;;8.92;87.42;100630.53;5072810;28;20502;-73
2020/12/15 11:13:38;;;;;;;26.13;14.75;;;;;;;8.93;87.48;100614.09;5072814;28;20059;-73
2020/12/15 11:16:04;;;;;;;31.20;15.02;;;;;;;8.97;86.85;100621.81;5072269;28;20071;-73
2020/12/15 11:18:30;;;;;;;19.13;13.50;;;;;;;8.99;87.54;100614.00;5060559;28;20049;-73
2020/12/15 11:20:56;;;;;;;23.48;14.85;;;;;;;8.99;86.77;100612.28;5053749;28;20574;-72
2020/12/15 11:23:21;;;;;;;22.30;15.80;;;;;;;8.99;87.32;100624.38;5053865;28;20057;-73
2020/12/15 11:25:49;;;;;;;22.83;14.60;;;;;;;8.96;87.75;100630.47;5070433;28;20580;-74
2020/12/15 11:28:15;;;;;;;20.88;14.27;;;;;;;8.99;86.86;100625.25;5072167;28;20091;-74
2020/12/15 11:30:42;;;;;;;22.98;14.05;;;;;;;8.97;86.97;100634.78;5072484;28;20524;-73